Derby Line, Vermont
Current Conditions -  °F | °C
As of 3:35 AM on Sunday 23 Nov 2014 (Local Time) from KEFK Reporting Station
Overcast Overcast  
Wind Chill: 32°   Ceiling: 2400
Heat Index: 38°   Visibility: 7mi
Dew Point: 35°   Wind: 7mph
Humidity: 89%   Direction: 200°SSW
Pressure: 29.94"   Gusts: NA
Location:  45°N, 72.1°W
Report Text: KEFK 230835Z AUTO 20006KT 7SM OVC024 03/02 A2994 RMK AO2 T00310015
Loading
Personal Weather Stations






























Interactive Weather Map New forecast layout! Learn more

10-Day Weather Forecast

Advertisements
Track Severe Weather on mobile